ADDS METAR Data INFO
IDs: Format: Raw Decoded Include TAF

Data at: 0226 UTC 14 Dec 2017

KCTB 140156Z AUTO 32011KT 10SM CLR M01/M07 A3031 RMK AO2 SLP299 T10061072
KCTB 140056Z AUTO 29009KT 10SM OVC060 02/M07 A3030 RMK AO2 SLP289 T00171067
KCTB 132356Z AUTO 29009KT 10SM OVC065 02/M07 A3028 RMK AO2 SLP295 T00221067 10067 20022 53016
KCTB 132256Z AUTO 30012KT 10SM BKN065 06/M07 A3025 RMK AO2 SLP271 T00611067
KCTB 132156Z AUTO 27011KT 10SM CLR 06/M07 A3023 RMK AO2 SLP261 T00611072
KCTB 132056Z AUTO 28009KT 10SM CLR 07/M06 A3023 RMK AO2 SLP264 T00671056 58007
KCTB 131956Z AUTO 28009KT 10SM CLR 06/M04 A3024 RMK AO2 SLP270 T00561039
KCTB 131856Z AUTO 33009KT 10SM SCT065 05/M04 A3025 RMK AO2 SLP273 T00501039
KCTB 131756Z AUTO 34008KT 10SM FEW070 02/M05 A3026 RMK AO2 SLP278 T00221050 10022 21067 51019
KCTB 131656Z AUTO 34009KT 10SM SCT120 00/M06 A3024 RMK AO2 SLP271 T00001061
KCTB 131556Z AUTO 33010KT 10SM BKN120 M02/M09 A3021 RMK AO2 SLP262 T10221089
KCTB 131456Z AUTO 33005KT 10SM BKN120 M03/M09 A3019 RMK AO2 SLP254 T10281089 56006
KCTB 131356Z AUTO 29004KT 10SM SCT120 M02/M09 A3020 RMK AO2 SLP254 T10221089
KCTB 131256Z AUTO 26004KT 10SM CLR M01/M10 A3020 RMK AO2 SLP252 T10111100
KCTB 131156Z AUTO 02003KT 10SM CLR M07/M12 A3021 RMK AO2 SLP261 T10671117 10000 21067 58004
KCTB 131056Z AUTO 32005KT 10SM CLR M03/M11 A3022 RMK AO2 SLP256 T10331106
KCTB 130956Z AUTO 30008KT 10SM CLR M02/M11 A3022 RMK AO2 SLP256 T10171106
KCTB 130856Z AUTO 30011KT 10SM CLR M03/M11 A3023 RMK AO2 SLP259 T10331106 58002
KCTB 130756Z AUTO 30007KT 10SM CLR M05/M11 A3024 RMK AO2 SLP265 T10501111
KCTB 130656Z AUTO 28007KT 10SM CLR M03/M11 A3023 RMK AO2 SLP257 T10281106 401061028
KCTB 130556Z AUTO 00000KT 10SM CLR M02/M11 A3023 RMK AO2 SLP258 T10221111 10072 21028 52016
KCTB 130456Z AUTO 31012KT 10SM CLR 01/M11 A3022 RMK AO2 SLP249 T00061106
KCTB 130356Z AUTO 30010KT 10SM CLR 02/M11 A3020 RMK AO2 SLP240 T00171111
KCTB 130256Z AUTO 29017KT 10SM CLR 04/M12 A3018 RMK AO2 SLP233 T00391117 53014
KCTB 130156Z AUTO 29014KT 10SM CLR 04/M12 A3016 RMK AO2 SLP222 T00441117
KCTB 130056Z AUTO 28010KT 10SM FEW120 06/M12 A3015 RMK AO2 PK WND 27029/0004 SLP215 T00561122
KCTB 122356Z AUTO 27018KT 10SM CLR 07/M14 A3014 RMK AO2 PK WND 27026/2310 SLP209 T00721139 10094 20072 53006
KCTB 122256Z AUTO 26021KT 10SM BKN100 OVC120 08/M14 A3012 RMK AO2 PK WND 25036/2202 SLP205 T00831144
KCTB 122156Z AUTO 25030G35KT 10SM CLR 08/M16 A3007 RMK AO2 PK WND 24035/2155 PRESFR SLP183 T00831156
KCTB 122056Z AUTO 26023G28KT 10SM CLR 08/M16 A3012 RMK AO2 PK WND 25033/2013 SLP203 T00831156 53013
KCTB 121956Z AUTO 26026G31KT 10SM CLR 08/M16 A3012 RMK AO2 PK WND 26046/1857 SLP200 T00831156
KCTB 121856Z AUTO 26037G46KT 10SM CLR 09/M16 A3007 RMK AO2 PK WND 26055/1757 SLP185 T00891161
KCTB 121756Z AUTO 27038G49KT 10SM CLR 09/M18 A3008 RMK AO2 PK WND 26049/1735 SLP189 T00941183 10106 20083 58010
KCTB 121656Z AUTO 26036G44KT 10SM CLR 09/M18 A3009 RMK AO2 PK WND 26044/1656 SLP197 T00891183
KCTB 121556Z AUTO 26023G37KT 10SM CLR 09/M19 A3013 RMK AO2 PK WND 26039/1539 SLP212 T00941189
KCTB 121456Z AUTO 26017G26KT 10SM CLR 08/M19 A3011 RMK AO2 PK WND 25034/1441 SLP210 T00831194 56004